createdAt,value
2017-08-03T00:00:41.497Z,84.80
2017-08-03T00:03:07.344Z,85.16
2017-08-03T00:05:33.396Z,85.15
2017-08-03T00:07:59.295Z,85.05
2017-08-03T00:10:25.171Z,85.84
2017-08-03T00:12:50.988Z,85.69
2017-08-03T00:15:16.842Z,85.09
2017-08-03T00:17:42.792Z,83.19
2017-08-03T00:20:08.742Z,84.48
2017-08-03T00:22:34.631Z,84.59
2017-08-03T00:25:00.539Z,84.52
2017-08-03T00:27:26.443Z,84.63
2017-08-03T00:29:52.263Z,85.07
2017-08-03T00:32:18.113Z,84.85
2017-08-03T00:34:43.961Z,84.52
2017-08-03T00:37:09.821Z,84.95
2017-08-03T00:39:35.726Z,86.15
2017-08-03T00:42:01.589Z,84.48
2017-08-03T00:44:27.416Z,85.99
2017-08-03T00:46:53.271Z,85.93
2017-08-03T00:49:19.082Z,85.88
2017-08-03T00:51:44.942Z,85.55
2017-08-03T00:54:10.915Z,86.11
2017-08-03T00:56:36.743Z,85.35
2017-08-03T00:59:02.577Z,85.06
2017-08-03T01:01:28.441Z,84.62
2017-08-03T01:03:54.419Z,84.04
2017-08-03T01:06:20.360Z,83.31
2017-08-03T01:08:46.263Z,82.87
2017-08-03T01:11:12.085Z,83.27
2017-08-03T01:13:38.013Z,83.68
2017-08-03T01:16:03.876Z,84.17
2017-08-03T01:18:29.941Z,83.11
2017-08-03T01:20:55.964Z,82.97
2017-08-03T01:23:21.840Z,82.82
2017-08-03T01:25:47.747Z,81.83
2017-08-03T01:28:13.567Z,81.81
2017-08-03T01:30:39.407Z,81.65
2017-08-03T01:33:05.230Z,81.83
2017-08-03T01:35:31.092Z,80.52
2017-08-03T01:37:56.919Z,81.47
2017-08-03T01:40:22.845Z,81.15
2017-08-03T01:42:48.711Z,80.93
2017-08-03T01:45:14.599Z,80.82
2017-08-03T01:47:40.488Z,81.54
2017-08-03T01:50:06.385Z,81.72
2017-08-03T01:52:32.263Z,82.25
2017-08-03T01:54:58.173Z,81.62
2017-08-03T01:57:23.992Z,81.10
2017-08-03T01:59:49.887Z,81.55
2017-08-03T02:02:15.767Z,81.35
2017-08-03T02:04:41.636Z,81.04
2017-08-03T02:07:07.524Z,80.94
2017-08-03T02:09:33.391Z,80.74
2017-08-03T02:11:59.298Z,81.12
2017-08-03T02:14:25.183Z,80.60
2017-08-03T02:16:51.038Z,80.61
2017-08-03T02:19:16.987Z,80.37
2017-08-03T02:21:42.810Z,80.53
2017-08-03T02:24:08.698Z,81.16
2017-08-03T02:26:34.614Z,81.18
2017-08-03T02:29:00.527Z,80.55
2017-08-03T02:31:26.389Z,81.02
2017-08-03T02:33:52.271Z,80.60
2017-08-03T02:36:18.201Z,81.10
2017-08-03T02:38:44.179Z,80.93
2017-08-03T02:41:09.995Z,80.33
2017-08-03T02:43:35.847Z,80.73
2017-08-03T02:46:01.719Z,80.73
2017-08-03T02:48:27.600Z,80.83
2017-08-03T02:50:53.427Z,79.75
2017-08-03T02:53:19.308Z,78.39
2017-08-03T02:55:45.128Z,79.08
2017-08-03T02:58:11.023Z,78.35
2017-08-03T03:00:36.952Z,78.45
2017-08-03T03:03:02.780Z,76.74
2017-08-03T03:05:28.628Z,76.81
2017-08-03T03:07:54.659Z,77.84
2017-08-03T03:10:20.616Z,77.32
2017-08-03T03:12:46.484Z,77.32
2017-08-03T03:15:12.508Z,77.91
2017-08-03T03:17:38.364Z,77.13
2017-08-03T03:20:04.340Z,76.86
2017-08-03T03:22:30.208Z,77.45
2017-08-03T03:24:56.159Z,77.24
2017-08-03T03:27:22.019Z,77.34
2017-08-03T03:29:48.076Z,76.81
2017-08-03T03:32:14.003Z,76.31
2017-08-03T03:34:39.851Z,76.31
2017-08-03T03:37:05.682Z,75.63
2017-08-03T03:39:31.504Z,75.13
2017-08-03T03:41:57.355Z,74.94
2017-08-03T03:44:23.290Z,74.78
2017-08-03T03:46:49.976Z,75.00
2017-08-03T03:49:15.858Z,75.59
2017-08-03T03:51:41.766Z,76.46
2017-08-03T03:54:07.587Z,75.56
2017-08-03T03:56:33.443Z,74.37
2017-08-03T03:58:59.290Z,74.39
2017-08-03T04:01:25.301Z,74.70
2017-08-03T04:03:51.128Z,74.25
2017-08-03T04:06:16.909Z,74.50
2017-08-03T04:08:43.137Z,74.95
2017-08-03T04:11:08.943Z,74.57
2017-08-03T04:13:34.742Z,75.05
2017-08-03T04:16:00.652Z,75.30
2017-08-03T04:18:26.449Z,75.44
2017-08-03T04:20:52.238Z,76.26
2017-08-03T04:23:18.061Z,75.84
2017-08-03T04:25:43.865Z,75.74
2017-08-03T04:28:09.641Z,75.86
2017-08-03T04:30:35.472Z,75.66
2017-08-03T04:33:01.313Z,75.98
2017-08-03T04:35:27.142Z,76.39
2017-08-03T04:37:52.917Z,76.00
2017-08-03T04:40:18.726Z,75.89
2017-08-03T04:42:44.659Z,75.54
2017-08-03T04:45:10.557Z,75.13
2017-08-03T04:47:36.416Z,74.58
2017-08-03T04:50:02.389Z,74.61
2017-08-03T04:52:28.229Z,74.57
2017-08-03T04:54:54.082Z,73.95
2017-08-03T04:57:19.870Z,73.65
2017-08-03T04:59:45.682Z,73.77
2017-08-03T05:02:11.521Z,73.57
2017-08-03T05:04:37.408Z,72.92
2017-08-03T05:07:03.204Z,73.00
2017-08-03T05:09:29.037Z,73.22
2017-08-03T05:11:55.376Z,73.38
2017-08-03T05:14:21.193Z,73.12
2017-08-03T05:16:47.022Z,73.25
2017-08-03T05:19:12.846Z,73.10
2017-08-03T05:21:38.666Z,73.57
2017-08-03T05:24:05.091Z,75.89
2017-08-03T05:26:30.955Z,76.09
2017-08-03T05:28:56.736Z,76.47
2017-08-03T05:31:22.536Z,77.54
2017-08-03T05:33:48.413Z,77.37
2017-08-03T05:36:14.246Z,76.40
2017-08-03T05:38:40.060Z,76.04
2017-08-03T05:41:06.007Z,76.27
2017-08-03T05:43:31.845Z,76.82
2017-08-03T05:45:57.680Z,76.69
2017-08-03T05:48:23.484Z,76.20
2017-08-03T05:50:49.357Z,75.63
2017-08-03T05:53:15.148Z,74.96
2017-08-03T05:55:40.946Z,75.64
2017-08-03T05:58:06.789Z,76.98
2017-08-03T06:00:32.611Z,77.15
2017-08-03T06:02:58.416Z,76.03
2017-08-03T06:05:24.232Z,75.58
2017-08-03T06:07:50.054Z,75.53
2017-08-03T06:10:16.745Z,76.48
2017-08-03T06:12:42.556Z,75.94
2017-08-03T06:15:08.394Z,76.45
2017-08-03T06:17:34.241Z,77.38
2017-08-03T06:20:00.051Z,78.15
2017-08-03T06:22:26.053Z,78.56
2017-08-03T06:24:51.894Z,79.28
2017-08-03T06:27:17.707Z,80.17
2017-08-03T06:29:43.529Z,79.19
2017-08-03T06:32:09.363Z,79.60
2017-08-03T06:34:35.260Z,80.18
2017-08-03T06:37:01.090Z,80.74
2017-08-03T06:39:26.942Z,81.15
2017-08-03T06:41:52.749Z,80.86
2017-08-03T06:44:18.966Z,80.46
2017-08-03T06:46:44.869Z,79.79
2017-08-03T06:49:10.680Z,79.70
2017-08-03T06:51:36.513Z,80.10
2017-08-03T06:54:02.338Z,80.29
2017-08-03T06:56:28.279Z,80.66
2017-08-03T06:58:54.121Z,80.68
2017-08-03T07:01:19.966Z,80.99
2017-08-03T07:03:45.769Z,81.81
2017-08-03T07:06:11.620Z,81.64
2017-08-03T07:08:37.469Z,81.44
2017-08-03T07:11:03.407Z,81.36
2017-08-03T07:13:29.202Z,81.39
2017-08-03T07:15:55.059Z,81.17
2017-08-03T07:18:20.945Z,81.62
2017-08-03T07:20:46.922Z,81.90
2017-08-03T07:23:12.770Z,81.66
2017-08-03T07:25:38.769Z,81.33
2017-08-03T07:28:04.588Z,81.33
2017-08-03T07:30:30.450Z,80.78
2017-08-03T07:32:56.365Z,79.81
2017-08-03T07:35:22.272Z,80.48
2017-08-03T07:37:48.133Z,79.12
2017-08-03T07:40:14.025Z,80.85
2017-08-03T07:42:39.849Z,78.85
2017-08-03T07:45:05.702Z,77.67
2017-08-03T07:47:31.909Z,79.03
2017-08-03T07:49:57.721Z,77.27
2017-08-03T07:52:23.498Z,77.82
2017-08-03T07:54:49.456Z,77.08
2017-08-03T07:57:15.278Z,76.07
2017-08-03T07:59:41.188Z,74.43
2017-08-03T08:02:07.035Z,75.81
2017-08-03T08:04:32.862Z,77.06
2017-08-03T08:06:58.761Z,77.35
2017-08-03T08:09:24.831Z,73.92
2017-08-03T08:11:50.774Z,74.77
2017-08-03T08:14:16.950Z,72.75
2017-08-03T08:16:43.144Z,72.86
2017-08-03T08:19:09.096Z,71.59
2017-08-03T08:21:35.046Z,69.56
2017-08-03T08:24:00.965Z,69.98
2017-08-03T08:26:26.871Z,69.74
2017-08-03T08:28:52.719Z,69.88
2017-08-03T08:31:18.584Z,69.56
2017-08-03T08:33:44.495Z,69.67
2017-08-03T08:36:10.314Z,68.98
2017-08-03T08:38:36.364Z,69.34
2017-08-03T08:41:02.180Z,69.19
2017-08-03T08:43:28.004Z,68.35
2017-08-03T08:45:53.876Z,65.36
2017-08-03T08:48:19.776Z,65.86
2017-08-03T08:50:45.639Z,66.14
2017-08-03T08:53:11.458Z,65.33
2017-08-03T08:55:37.343Z,64.07
2017-08-03T08:58:03.186Z,62.03
2017-08-03T09:00:29.105Z,63.04
2017-08-03T09:02:54.926Z,62.89
2017-08-03T09:05:20.779Z,61.95
2017-08-03T09:07:46.594Z,60.58
2017-08-03T09:10:12.408Z,60.31
2017-08-03T09:12:38.272Z,60.27
2017-08-03T09:15:04.080Z,58.97
2017-08-03T09:17:29.875Z,58.95
2017-08-03T09:19:55.724Z,58.74
2017-08-03T09:22:21.525Z,58.45
2017-08-03T09:24:47.369Z,58.94
2017-08-03T09:27:13.242Z,60.20
2017-08-03T09:29:39.172Z,59.57
2017-08-03T09:32:05.014Z,57.72
2017-08-03T09:34:30.867Z,57.90
2017-08-03T09:36:56.687Z,58.01
2017-08-03T09:39:22.476Z,57.50
2017-08-03T09:41:48.304Z,57.40
2017-08-03T09:44:14.253Z,55.45
2017-08-03T09:46:40.468Z,53.81
2017-08-03T09:49:06.321Z,54.54
2017-08-03T09:51:32.148Z,55.48
2017-08-03T09:53:57.950Z,56.76
2017-08-03T09:56:23.789Z,53.57
2017-08-03T09:58:49.632Z,53.58
2017-08-03T10:01:15.455Z,54.32
2017-08-03T10:03:41.309Z,55.58
2017-08-03T10:06:07.218Z,53.87
2017-08-03T10:08:33.066Z,54.89
2017-08-03T10:10:58.934Z,55.09
2017-08-03T10:13:24.786Z,55.06
2017-08-03T10:15:50.736Z,55.92
2017-08-03T10:18:16.598Z,55.61
2017-08-03T10:20:42.411Z,55.60
2017-08-03T10:23:08.427Z,55.01
2017-08-03T10:25:34.247Z,54.46
2017-08-03T10:28:00.074Z,54.41
2017-08-03T10:30:25.939Z,52.62
2017-08-03T10:32:51.847Z,52.21
2017-08-03T10:35:17.696Z,52.94
2017-08-03T10:37:43.533Z,51.61
2017-08-03T10:40:09.352Z,48.40
2017-08-03T10:42:35.174Z,46.78
2017-08-03T10:45:00.975Z,46.21
2017-08-03T10:47:26.816Z,46.64
2017-08-03T10:49:52.644Z,45.84
2017-08-03T10:52:18.528Z,47.11
2017-08-03T10:54:44.327Z,48.30
2017-08-03T10:57:10.241Z,47.93
2017-08-03T10:59:36.082Z,47.44
2017-08-03T11:02:01.887Z,47.22
2017-08-03T11:04:27.754Z,46.19
2017-08-03T11:06:53.627Z,44.96
2017-08-03T11:09:19.535Z,43.60
2017-08-03T11:11:45.355Z,44.66
2017-08-03T11:14:11.231Z,44.96
2017-08-03T11:16:37.082Z,46.09
2017-08-03T11:19:02.916Z,45.87
2017-08-03T11:21:28.923Z,45.71
2017-08-03T11:23:54.794Z,46.07
2017-08-03T11:26:20.747Z,46.33
2017-08-03T11:28:46.594Z,46.49
2017-08-03T11:31:12.418Z,46.23
2017-08-03T11:33:38.383Z,47.17
2017-08-03T11:36:04.246Z,46.26
2017-08-03T11:38:30.176Z,46.82
2017-08-03T11:40:56.038Z,47.94
2017-08-03T11:43:21.846Z,50.64
2017-08-03T11:45:47.754Z,51.84
2017-08-03T11:48:13.841Z,52.80
2017-08-03T11:50:39.746Z,51.98
2017-08-03T11:53:05.591Z,53.01
2017-08-03T11:55:31.494Z,51.36
2017-08-03T11:57:57.431Z,52.29
2017-08-03T12:00:23.428Z,52.56
2017-08-03T12:02:49.407Z,52.25
2017-08-03T12:05:15.365Z,51.96
2017-08-03T12:07:41.315Z,51.84
2017-08-03T12:10:07.355Z,51.09
2017-08-03T12:12:33.296Z,51.38
2017-08-03T12:14:59.151Z,50.48
2017-08-03T12:17:25.042Z,51.26
2017-08-03T12:19:51.061Z,51.48
2017-08-03T12:22:16.956Z,50.00
2017-08-03T12:24:42.897Z,49.93
2017-08-03T12:27:08.802Z,52.13
2017-08-03T12:29:34.646Z,50.19
2017-08-03T12:32:00.462Z,51.13
2017-08-03T12:34:26.378Z,51.60
2017-08-03T12:36:52.283Z,49.62
2017-08-03T12:39:18.099Z,47.15
2017-08-03T12:41:43.952Z,47.64
2017-08-03T12:44:09.757Z,49.25
2017-08-03T12:46:36.582Z,50.50
2017-08-03T12:49:02.464Z,50.57
2017-08-03T12:51:28.354Z,47.87
2017-08-03T12:53:54.259Z,48.53
2017-08-03T12:56:20.112Z,46.56
2017-08-03T12:58:45.962Z,47.18
2017-08-03T13:01:12.010Z,45.79
2017-08-03T13:03:37.879Z,45.83
2017-08-03T13:06:03.795Z,48.67
2017-08-03T13:08:29.724Z,47.49
2017-08-03T13:10:55.658Z,47.22
2017-08-03T13:13:21.855Z,46.31
2017-08-03T13:15:47.749Z,45.36
2017-08-03T13:18:13.714Z,46.15
2017-08-03T13:20:39.571Z,47.96
2017-08-03T13:23:05.508Z,47.31
2017-08-03T13:25:31.495Z,47.99
2017-08-03T13:27:57.326Z,46.25
2017-08-03T13:30:23.293Z,46.64
2017-08-03T13:32:49.232Z,46.70
2017-08-03T13:35:15.091Z,46.79
2017-08-03T13:37:40.908Z,47.25
2017-08-03T13:40:06.908Z,47.66
2017-08-03T13:42:32.782Z,48.00
2017-08-03T13:44:58.799Z,48.14
2017-08-03T13:47:24.786Z,47.67
2017-08-03T13:49:50.669Z,49.29
2017-08-03T13:52:16.599Z,50.75
2017-08-03T13:54:42.506Z,51.38
2017-08-03T13:57:08.416Z,51.53
2017-08-03T13:59:34.310Z,51.40
2017-08-03T14:02:00.336Z,51.14
2017-08-03T14:04:26.327Z,52.47
2017-08-03T14:06:52.221Z,51.33
2017-08-03T14:09:18.182Z,52.67
2017-08-03T14:11:44.020Z,51.54
2017-08-03T14:14:10.036Z,50.47
2017-08-03T14:16:36.003Z,50.38
2017-08-03T14:19:01.855Z,48.46
2017-08-03T14:21:27.930Z,49.48
2017-08-03T14:23:53.861Z,49.21
2017-08-03T14:26:19.687Z,49.20
2017-08-03T14:28:45.574Z,49.84
2017-08-03T14:31:11.495Z,51.74
2017-08-03T14:33:37.366Z,52.00
2017-08-03T14:36:03.255Z,49.07
2017-08-03T14:38:29.281Z,49.58
2017-08-03T14:40:55.205Z,50.40
2017-08-03T14:43:21.063Z,49.71
2017-08-03T14:45:47.081Z,46.46
2017-08-03T14:48:13.352Z,47.77
2017-08-03T14:50:39.176Z,48.40
2017-08-03T14:53:04.990Z,48.77
2017-08-03T14:55:30.866Z,48.67
2017-08-03T14:57:56.691Z,46.70
2017-08-03T15:00:22.545Z,46.97
2017-08-03T15:02:48.582Z,46.27
2017-08-03T15:05:14.589Z,43.96
2017-08-03T15:07:40.518Z,47.59
2017-08-03T15:10:06.456Z,48.59
2017-08-03T15:12:32.461Z,48.23
2017-08-03T15:14:59.474Z,47.85
2017-08-03T15:17:25.551Z,48.60
2017-08-03T15:19:51.553Z,46.02
2017-08-03T15:22:17.503Z,48.10
2017-08-03T15:24:43.401Z,48.37
2017-08-03T15:27:09.319Z,46.74
2017-08-03T15:29:35.339Z,47.93
2017-08-03T15:32:01.284Z,48.87
2017-08-03T15:34:27.132Z,50.03
2017-08-03T15:36:52.997Z,49.37
2017-08-03T15:39:18.888Z,48.87
2017-08-03T15:41:44.723Z,45.75
2017-08-03T15:44:10.777Z,47.54
2017-08-03T15:46:37.180Z,48.68
2017-08-03T15:49:03.125Z,49.48
2017-08-03T15:51:29.074Z,49.92
2017-08-03T15:53:55.018Z,49.64
2017-08-03T15:56:20.861Z,49.12
2017-08-03T15:58:46.708Z,49.94
2017-08-03T16:01:12.764Z,48.19
2017-08-03T16:03:38.695Z,47.45
2017-08-03T16:06:04.520Z,47.22
2017-08-03T16:08:30.389Z,47.45
2017-08-03T16:10:56.410Z,48.19
2017-08-03T16:13:22.328Z,48.47
2017-08-03T16:15:48.264Z,47.80
2017-08-03T16:18:14.189Z,47.23
2017-08-03T16:20:40.026Z,48.35
2017-08-03T16:23:05.940Z,48.45
2017-08-03T16:25:33.048Z,45.63
2017-08-03T16:27:58.886Z,44.59
2017-08-03T16:30:24.748Z,43.01
2017-08-03T16:32:50.559Z,42.06
2017-08-03T16:35:16.608Z,42.27
2017-08-03T16:37:42.474Z,42.09
2017-08-03T16:40:08.576Z,42.04
2017-08-03T16:42:34.415Z,42.25
2017-08-03T16:45:00.326Z,41.96
2017-08-03T16:47:26.287Z,42.32
2017-08-03T16:49:52.134Z,42.86
2017-08-03T16:52:17.996Z,42.82
2017-08-03T16:54:43.931Z,43.52
2017-08-03T16:57:09.811Z,44.73
2017-08-03T16:59:35.628Z,44.39
2017-08-03T17:02:01.418Z,44.09
2017-08-03T17:04:27.262Z,45.59
2017-08-03T17:06:53.065Z,45.90
2017-08-03T17:09:19.191Z,45.93
2017-08-03T17:11:45.070Z,46.74
2017-08-03T17:14:10.901Z,48.03
2017-08-03T17:16:36.778Z,47.21
2017-08-03T17:19:02.615Z,49.14
2017-08-03T17:21:28.517Z,48.43
2017-08-03T17:23:54.491Z,48.86
2017-08-03T17:26:20.472Z,48.87
2017-08-03T17:28:46.501Z,48.21
2017-08-03T17:31:12.525Z,49.37
2017-08-03T17:33:38.506Z,50.11
2017-08-03T17:36:04.393Z,49.58
2017-08-03T17:38:30.381Z,50.92
2017-08-03T17:40:56.402Z,50.21
2017-08-03T17:43:22.378Z,51.77
2017-08-03T17:45:48.267Z,52.00
2017-08-03T17:48:14.192Z,52.31
2017-08-03T17:50:40.096Z,52.15
2017-08-03T17:53:06.080Z,51.38
2017-08-03T17:55:31.897Z,51.12
2017-08-03T17:57:57.754Z,52.39
2017-08-03T18:00:23.767Z,52.51
2017-08-03T18:02:49.747Z,52.90
2017-08-03T18:05:15.573Z,53.89
2017-08-03T18:07:41.459Z,53.91
2017-08-03T18:10:07.430Z,54.76
2017-08-03T18:12:33.248Z,55.36
2017-08-03T18:14:59.226Z,55.63
2017-08-03T18:17:25.060Z,55.00
2017-08-03T18:19:50.914Z,54.77
2017-08-03T18:22:16.912Z,55.40
2017-08-03T18:24:42.757Z,55.19
2017-08-03T18:27:08.611Z,55.50
2017-08-03T18:29:34.586Z,55.51
2017-08-03T18:32:00.403Z,55.74
2017-08-03T18:34:26.243Z,55.77
2017-08-03T18:36:52.059Z,56.42
2017-08-03T18:39:18.139Z,57.94
2017-08-03T18:41:43.960Z,57.20
2017-08-03T18:44:09.891Z,58.49
2017-08-03T18:46:36.444Z,58.80
2017-08-03T18:49:02.412Z,58.53
2017-08-03T18:51:28.304Z,58.18
2017-08-03T18:53:54.196Z,58.08
2017-08-03T18:56:20.144Z,59.26
2017-08-03T18:58:45.979Z,60.83
2017-08-03T19:01:11.864Z,61.75
2017-08-03T19:03:37.702Z,61.55
2017-08-03T19:06:03.604Z,61.77
2017-08-03T19:08:29.448Z,60.99
2017-08-03T19:10:55.296Z,62.30
2017-08-03T19:13:21.130Z,62.85
2017-08-03T19:15:47.057Z,62.80
2017-08-03T19:18:13.005Z,62.56
2017-08-03T19:20:39.037Z,63.00
2017-08-03T19:23:04.870Z,64.00
2017-08-03T19:25:30.852Z,65.45
2017-08-03T19:27:56.777Z,65.65
2017-08-03T19:30:22.686Z,65.65
2017-08-03T19:32:48.515Z,65.66
2017-08-03T19:35:14.485Z,65.97
2017-08-03T19:37:40.320Z,65.18
2017-08-03T19:40:06.221Z,65.63
2017-08-03T19:42:32.180Z,65.37
2017-08-03T19:44:58.032Z,65.83
2017-08-03T19:47:23.905Z,64.51
2017-08-03T19:49:49.860Z,64.36
2017-08-03T19:52:15.757Z,64.42
2017-08-03T19:54:41.784Z,65.13
2017-08-03T19:57:08.577Z,65.06
2017-08-03T19:59:34.424Z,65.23
2017-08-03T20:02:00.383Z,65.32
2017-08-03T20:04:26.228Z,64.55
2017-08-03T20:07:13.045Z,64.67
2017-08-03T20:09:59.808Z,63.87
2017-08-03T20:12:25.678Z,63.47
2017-08-03T20:14:51.590Z,63.64
2017-08-03T20:17:17.476Z,63.62
2017-08-03T20:19:43.359Z,63.48
2017-08-03T20:22:09.289Z,64.64
2017-08-03T20:24:35.232Z,64.15
2017-08-03T20:27:01.127Z,65.92
2017-08-03T20:29:27.032Z,66.05
2017-08-03T20:31:52.987Z,65.76
2017-08-03T20:34:18.887Z,63.85
2017-08-03T20:36:44.832Z,64.17
2017-08-03T20:39:10.709Z,63.77
2017-08-03T20:41:36.687Z,64.12
2017-08-03T20:44:02.563Z,65.40
2017-08-03T20:46:28.542Z,62.37
2017-08-03T20:48:54.371Z,61.65
2017-08-03T20:51:20.471Z,61.29
2017-08-03T20:53:46.367Z,61.05
2017-08-03T20:56:12.285Z,61.72
2017-08-03T20:58:38.275Z,61.97
2017-08-03T21:01:04.161Z,63.02
2017-08-03T21:03:30.060Z,63.40
2017-08-03T21:05:56.588Z,63.77
2017-08-03T21:08:22.529Z,63.66
2017-08-03T21:10:48.392Z,64.82
2017-08-03T21:13:14.495Z,65.52
2017-08-03T21:15:40.493Z,65.83
2017-08-03T21:18:06.421Z,66.56
2017-08-03T21:20:32.271Z,67.16
2017-08-03T21:22:58.364Z,67.02
2017-08-03T21:25:24.393Z,68.14
2017-08-03T21:27:50.324Z,68.55
2017-08-03T21:30:16.557Z,68.75
2017-08-03T21:32:42.609Z,68.44
2017-08-03T21:35:08.669Z,68.71
2017-08-03T21:37:34.589Z,68.48
2017-08-03T21:40:00.446Z,69.15
2017-08-03T21:42:26.325Z,68.98
2017-08-03T21:44:52.258Z,68.77
2017-08-03T21:47:18.148Z,69.32
2017-08-03T21:49:43.995Z,69.35
2017-08-03T21:52:09.848Z,68.98
2017-08-03T21:54:35.707Z,69.35
2017-08-03T21:57:01.672Z,69.49
2017-08-03T21:59:27.611Z,70.58
2017-08-03T22:01:53.502Z,71.33
2017-08-03T22:04:19.372Z,69.88
2017-08-03T22:06:45.319Z,71.32
2017-08-03T22:09:11.175Z,70.82
2017-08-03T22:11:37.000Z,71.02
2017-08-03T22:14:03.139Z,70.86
2017-08-03T22:16:29.078Z,70.51
2017-08-03T22:18:54.900Z,71.56
2017-08-03T22:21:20.771Z,71.69
2017-08-03T22:26:13.504Z,71.63
2017-08-03T22:28:39.396Z,72.04
2017-08-03T22:31:05.243Z,71.94
2017-08-03T22:33:31.162Z,72.78
2017-08-03T22:35:57.023Z,71.52
2017-08-03T22:38:22.903Z,71.50
2017-08-03T22:40:48.812Z,71.31
2017-08-03T22:43:14.644Z,71.16
2017-08-03T22:45:40.572Z,72.22
2017-08-03T22:48:06.474Z,72.10
2017-08-03T22:50:32.347Z,73.19
2017-08-03T22:52:58.175Z,73.32
2017-08-03T22:55:23.999Z,72.66
2017-08-03T22:57:49.872Z,70.88
2017-08-03T23:00:15.783Z,69.24
2017-08-03T23:02:42.407Z,68.06
2017-08-03T23:05:08.257Z,70.65
2017-08-03T23:07:34.112Z,72.89
2017-08-03T23:09:59.936Z,72.17
2017-08-03T23:12:25.809Z,72.91
2017-08-03T23:14:51.822Z,73.43
2017-08-03T23:17:17.730Z,72.25
2017-08-03T23:19:43.612Z,72.26
2017-08-03T23:22:09.443Z,71.09
2017-08-03T23:24:35.281Z,71.10
2017-08-03T23:27:01.145Z,70.81
2017-08-03T23:29:27.084Z,71.02
2017-08-03T23:31:52.934Z,71.69
2017-08-03T23:34:18.747Z,70.29
2017-08-03T23:36:44.607Z,69.59
2017-08-03T23:39:10.507Z,70.60
2017-08-03T23:41:36.980Z,69.44
2017-08-03T23:44:02.815Z,70.37
2017-08-03T23:46:28.650Z,71.01
2017-08-03T23:48:54.516Z,70.75
2017-08-03T23:51:20.423Z,69.35
2017-08-03T23:53:46.256Z,70.04
2017-08-03T23:56:12.117Z,68.21
2017-08-03T23:58:37.939Z,68.52
